Skip Navigation Links
NOAA logo - Click to go to the NOAA homepage
NOAA's National Weather Service
Alaska Aviation Weather Unit
  NWS logo - Click to go to the NWS homepage
Left Navbar Graphic     03 AKDT = 11 GMT

   
NOAA is celebrating 200 years of science, service, and stewardship. Visit the NOAA 200th celebration Web site to learn more.
USA.gov is the U.S. Government's official Web portal to all Federal, state and local government Web resources and services.
Facebook
NWS on Facebook

AAWU Home :: Display TAF Add Bookmark
TAF PAPG 290913Z 2909/3006 00000KT 6SM -SHRA BR OVC025
      TEMPO 2909/2911 22005KT 2SM -SHRA BR BKN003 OVC015
     FM291200 00000KT 5SM -SHRA BR OVC025
     FM292300 VRB03KT P6SM VCSH OVC025
      AMD LTD TO CLD VIS AND WIND TIL 291500=

METAR PAPG 290516Z 00000KT 9SM BKN020 OVC024 03/03 A2983 RMK AO2 SLP298 P0999 PWINO FZRANO TSNO RVRNO= METAR PAPG 290536Z 00000KT 2 1/2SM OVC022 03/03 A2984 RMK AO2 SLP299 P1000 PWINO FZRANO TSNO RVRNO= METAR PAPG 290616Z 00000KT 2 1/2SM BKN020 OVC028 03/03 A2984 RMK AO2 SLP299 P0998 PWINO FZRANO RVRNO= METAR PAPG 290636Z 00000KT 3SM OVC024 03/03 A2984 RMK AO2 SLP299 P0999 PWINO FZRANO RVRNO= METAR PAPG 290656Z 00000KT 3/4SM SCT002 BKN024 OVC033 03/03 A2984 RMK AO2 SLP299 P1000 PWINO FZRANO RVRNO= METAR PAPG 290716Z 00000KT 5SM BKN002 OVC024 03/03 A2985 RMK AO2 SLP299 P0998 PWINO FZRANO RVRNO= METAR PAPG 290736Z 00000KT 9SM SCT002 OVC023 03/03 A2985 RMK AO2 SLP299 P0998 PWINO FZRANO RVRNO= METAR PAPG 290756Z 00000KT 4SM SCT002 BKN016 OVC023 03/03 A2985 RMK AO2 SLP299 P0998 PWINO FZRANO RVRNO= METAR PAPG 290816Z 00000KT 4SM FEW016 BKN021 OVC027 03/03 A2986 RMK AO2 SLP299 P0001 PWINO FZRANO RVRNO= METAR PAPG 290836Z 23004KT 5SM BKN003 OVC021 02/02 A2986 RMK AO2 SLP299 P0001 PWINO FZRANO RVRNO= METAR PAPG 290856Z 22007KT 9SM BKN003 OVC023 04/02 A2986 RMK AO2 SLP299 P0001 61999 52007 PWINO FZRANO RVRNO= METAR PAPG 290916Z 22005KT 10SM BKN003 BKN009 OVC021 04/02 A2987 RMK AO2 SLP299 P1000 PWINO FZRANO RVRNO= METAR PAPG 290936Z 22005KT 8SM FEW003 OVC028 04/02 A2987 RMK AO2 SLP299 P1000 PWINO FZRANO RVRNO= METAR PAPG 290956Z 23005KT 8SM OVC028 04/03 A2986 RMK AO2 SLP299 P1001 PWINO FZRANO RVRNO= METAR PAPG 291016Z 00000KT 10SM OVC028 04/03 A2986 RMK AO2 SLP299 P0998 PWINO FZRANO RVRNO= METAR PAPG 291036Z 30004KT 10SM OVC026 03/03 A2985 RMK AO2 SLP299 P0999 PWINO FZRANO RVRNO= METAR PAPG 291056Z 26003KT 10SM OVC022 03/03 A2985 RMK AO2 SLP299 P0999 PWINO FZRANO RVRNO=
 Alaska TAF Map

NOAA's National Weather Service
Alaska Aviation Weather Unit
6930 Sand Lake Road
Anchorage, AK 99502-1845
Disclaimer
Credits
Glossary
Privacy Policy
About Us
Career Opportunities
Contact AAWU Internet Services Site last modified: April, 17th 2012